createdAt,value
2018-12-10T00:00:20.742Z,0
2018-12-10T00:01:29.649Z,0
2018-12-10T00:02:38.327Z,0
2018-12-10T00:03:47.248Z,0
2018-12-10T00:04:55.926Z,0
2018-12-10T00:06:04.623Z,0
2018-12-10T00:07:13.396Z,0
2018-12-10T00:08:22.076Z,0
2018-12-10T00:09:30.746Z,0
2018-12-10T00:10:47.932Z,0
2018-12-10T00:11:56.599Z,0
2018-12-10T00:13:05.269Z,0
2018-12-10T00:14:13.939Z,0
2018-12-10T00:15:22.597Z,0
2018-12-10T00:16:31.626Z,0
2018-12-10T00:17:40.285Z,0
2018-12-10T00:18:48.959Z,0
2018-12-10T00:19:57.622Z,0
2018-12-10T00:21:06.298Z,0
2018-12-10T00:22:14.965Z,0
2018-12-10T00:23:23.633Z,0
2018-12-10T00:24:32.291Z,0
2018-12-10T00:25:40.963Z,0
2018-12-10T00:26:49.634Z,0
2018-12-10T00:27:58.309Z,0
2018-12-10T00:29:06.982Z,0
2018-12-10T00:30:15.645Z,0
2018-12-10T00:31:24.319Z,0
2018-12-10T00:32:32.985Z,0
2018-12-10T00:33:41.667Z,0
2018-12-10T00:34:50.437Z,0
2018-12-10T00:35:59.118Z,0
2018-12-10T00:37:07.784Z,0
2018-12-10T00:38:16.460Z,0
2018-12-10T00:39:25.120Z,0
2018-12-10T00:40:33.861Z,0
2018-12-10T00:41:42.539Z,0
2018-12-10T00:42:51.213Z,0
2018-12-10T00:43:59.952Z,0
2018-12-10T00:45:08.630Z,0
2018-12-10T00:46:17.297Z,0
2018-12-10T00:47:25.960Z,0
2018-12-10T00:48:34.639Z,0
2018-12-10T00:49:43.309Z,0
2018-12-10T00:50:52.099Z,0
2018-12-10T00:52:00.756Z,0
2018-12-10T00:53:09.434Z,0
2018-12-10T00:54:18.097Z,0
2018-12-10T00:55:26.837Z,0
2018-12-10T00:56:35.490Z,0
2018-12-10T00:57:44.232Z,0
2018-12-10T00:58:52.905Z,0
2018-12-10T01:00:01.570Z,0
2018-12-10T01:01:10.486Z,0
2018-12-10T01:02:19.169Z,0
2018-12-10T01:03:27.937Z,0
2018-12-10T01:04:36.609Z,0
2018-12-10T01:05:45.286Z,0
2018-12-10T01:06:53.950Z,0
2018-12-10T01:08:02.650Z,0
2018-12-10T01:09:11.689Z,0
2018-12-10T01:10:20.370Z,0
2018-12-10T01:11:29.031Z,0
2018-12-10T01:12:37.700Z,0
2018-12-10T01:13:46.620Z,0
2018-12-10T01:14:55.294Z,0
2018-12-10T01:16:03.957Z,0
2018-12-10T01:17:12.623Z,0
2018-12-10T01:18:21.549Z,0
2018-12-10T01:19:30.221Z,0
2018-12-10T01:20:38.885Z,0
2018-12-10T01:21:47.607Z,0
2018-12-10T01:22:56.279Z,0
2018-12-10T01:24:04.943Z,0
2018-12-10T01:25:13.616Z,0
2018-12-10T01:26:22.282Z,0
2018-12-10T01:27:30.953Z,0
2018-12-10T01:28:39.635Z,0
2018-12-10T01:29:48.307Z,0
2018-12-10T01:30:56.975Z,0
2018-12-10T01:32:05.639Z,0
2018-12-10T01:33:14.302Z,0
2018-12-10T01:34:22.981Z,0
2018-12-10T01:35:31.644Z,0
2018-12-10T01:36:40.338Z,0
2018-12-10T01:37:48.998Z,0
2018-12-10T01:38:57.672Z,0
2018-12-10T01:40:06.337Z,0
2018-12-10T01:41:15.012Z,0
2018-12-10T01:42:23.688Z,0
2018-12-10T01:43:32.351Z,0
2018-12-10T01:44:41.020Z,0
2018-12-10T01:45:50.197Z,0
2018-12-10T01:46:58.868Z,0
2018-12-10T01:48:07.530Z,0
2018-12-10T01:49:16.200Z,0
2018-12-10T01:50:24.868Z,0
2018-12-10T01:51:33.553Z,0
2018-12-10T01:52:42.230Z,0
2018-12-10T01:53:50.899Z,0
2018-12-10T01:54:59.571Z,0
2018-12-10T01:56:08.241Z,0
2018-12-10T01:57:16.905Z,0
2018-12-10T01:58:25.829Z,0
2018-12-10T01:59:34.489Z,0
2018-12-10T02:00:43.157Z,0
2018-12-10T02:01:51.827Z,0
2018-12-10T02:03:00.492Z,0
2018-12-10T02:04:09.163Z,0
2018-12-10T02:05:17.825Z,0
2018-12-10T02:06:26.506Z,0
2018-12-10T02:07:35.173Z,0
2018-12-10T02:08:43.837Z,0
2018-12-10T02:09:52.757Z,0
2018-12-10T02:11:01.429Z,0
2018-12-10T02:12:10.100Z,0
2018-12-10T02:13:19.021Z,0
2018-12-10T02:14:27.679Z,0
2018-12-10T02:15:36.353Z,0
2018-12-10T02:16:45.023Z,0
2018-12-10T02:17:53.699Z,0
2018-12-10T02:19:02.369Z,0
2018-12-10T02:20:11.036Z,0
2018-12-10T02:21:19.707Z,0
2018-12-10T02:22:28.374Z,0
2018-12-10T02:23:37.042Z,0
2018-12-10T02:24:45.707Z,0
2018-12-10T02:25:54.636Z,0
2018-12-10T02:27:03.296Z,0
2018-12-10T02:28:11.970Z,0
2018-12-10T02:29:20.737Z,0
2018-12-10T02:30:29.586Z,0
2018-12-10T02:31:38.263Z,0
2018-12-10T02:32:47.190Z,0
2018-12-10T02:33:56.131Z,0
2018-12-10T02:35:05.048Z,0
2018-12-10T02:36:13.719Z,0
2018-12-10T02:37:22.385Z,0
2018-12-10T02:38:31.059Z,0
2018-12-10T02:39:39.732Z,0
2018-12-10T02:40:48.418Z,0
2018-12-10T02:41:57.083Z,0
2018-12-10T02:43:05.763Z,0
2018-12-10T02:44:14.437Z,0
2018-12-10T02:45:23.112Z,0
2018-12-10T02:46:31.774Z,0
2018-12-10T02:47:40.704Z,0
2018-12-10T02:48:49.380Z,0
2018-12-10T02:49:58.304Z,0
2018-12-10T02:51:07.245Z,0
2018-12-10T02:52:15.929Z,0
2018-12-10T02:53:24.856Z,0
2018-12-10T02:54:33.549Z,0
2018-12-10T02:55:42.223Z,0
2018-12-10T02:56:51.154Z,0
2018-12-10T02:57:59.827Z,0
2018-12-10T02:59:08.536Z,0
2018-12-10T03:00:17.223Z,0
2018-12-10T03:01:26.152Z,0
2018-12-10T03:02:34.849Z,0
2018-12-10T03:03:43.529Z,0
2018-12-10T03:04:52.214Z,0
2018-12-10T03:06:00.894Z,0
2018-12-10T03:07:09.829Z,0
2018-12-10T03:08:18.757Z,0
2018-12-10T03:09:27.451Z,0
2018-12-10T03:10:36.121Z,0
2018-12-10T03:11:44.793Z,0
2018-12-10T03:12:53.464Z,0
2018-12-10T03:14:02.158Z,0
2018-12-10T03:15:11.109Z,0
2018-12-10T03:16:19.774Z,0
2018-12-10T03:17:28.714Z,0
2018-12-10T03:18:37.377Z,0
2018-12-10T03:19:46.163Z,0
2018-12-10T03:20:57.258Z,0
2018-12-10T03:22:05.941Z,0
2018-12-10T03:23:14.627Z,0
2018-12-10T03:24:23.579Z,0
2018-12-10T03:25:32.262Z,0
2018-12-10T03:26:40.937Z,0
2018-12-10T03:27:49.620Z,0
2018-12-10T03:28:58.553Z,0
2018-12-10T03:30:07.264Z,0
2018-12-10T03:31:15.989Z,0
2018-12-10T03:32:24.715Z,0
2018-12-10T03:33:33.415Z,0
2018-12-10T03:34:42.111Z,0
2018-12-10T03:35:50.778Z,0
2018-12-10T03:36:59.789Z,0
2018-12-10T03:38:08.528Z,0
2018-12-10T03:39:17.417Z,0
2018-12-10T03:40:26.803Z,0
2018-12-10T03:41:35.543Z,0
2018-12-10T03:42:44.602Z,0
2018-12-10T03:43:53.403Z,0
2018-12-10T03:45:02.351Z,0
2018-12-10T03:46:11.300Z,0
2018-12-10T03:47:20.226Z,0
2018-12-10T03:48:29.148Z,0
2018-12-10T03:49:37.966Z,0
2018-12-10T03:50:46.635Z,0
2018-12-10T03:51:55.310Z,0
2018-12-10T03:53:03.988Z,0
2018-12-10T03:54:12.667Z,0
2018-12-10T03:55:21.325Z,0
2018-12-10T03:56:30.025Z,0
2018-12-10T03:57:39.049Z,0
2018-12-10T03:58:48.258Z,0
2018-12-10T03:59:57.182Z,0
2018-12-10T04:01:05.873Z,0
2018-12-10T04:02:14.566Z,0
2018-12-10T04:03:23.240Z,0
2018-12-10T04:04:32.159Z,0
2018-12-10T04:05:40.825Z,0
2018-12-10T04:06:49.566Z,0
2018-12-10T04:07:58.481Z,0
2018-12-10T04:09:07.148Z,0
2018-12-10T04:10:15.824Z,0
2018-12-10T04:11:24.922Z,0
2018-12-10T04:12:33.906Z,0
2018-12-10T04:13:42.571Z,0
2018-12-10T04:14:51.252Z,0
2018-12-10T04:15:59.939Z,0
2018-12-10T04:17:08.614Z,0
2018-12-10T04:18:17.388Z,0
2018-12-10T04:19:26.196Z,0
2018-12-10T04:20:34.877Z,0
2018-12-10T04:21:43.554Z,0
2018-12-10T04:22:52.215Z,0
2018-12-10T04:24:01.154Z,0
2018-12-10T04:25:09.832Z,0
2018-12-10T04:26:18.545Z,0
2018-12-10T04:27:27.216Z,0
2018-12-10T04:28:35.882Z,0
2018-12-10T04:29:44.557Z,0
2018-12-10T04:30:53.381Z,0
2018-12-10T04:32:02.078Z,0
2018-12-10T04:33:10.746Z,0
2018-12-10T04:34:19.685Z,0
2018-12-10T04:35:28.388Z,0
2018-12-10T04:36:37.082Z,0
2018-12-10T04:37:45.741Z,0
2018-12-10T04:38:54.453Z,0
2018-12-10T04:40:03.645Z,0
2018-12-10T04:41:12.325Z,0
2018-12-10T04:42:21.006Z,0
2018-12-10T04:43:29.682Z,0
2018-12-10T04:44:38.342Z,0
2018-12-10T04:45:47.401Z,0
2018-12-10T04:46:56.353Z,0
2018-12-10T04:48:05.020Z,0
2018-12-10T04:49:13.692Z,0
2018-12-10T04:50:22.351Z,0
2018-12-10T04:51:31.029Z,0
2018-12-10T04:52:39.939Z,0
2018-12-10T04:53:48.622Z,0
2018-12-10T04:54:57.293Z,0
2018-12-10T04:56:05.972Z,0
2018-12-10T04:57:14.643Z,0
2018-12-10T04:58:23.569Z,0
2018-12-10T04:59:32.229Z,0
2018-12-10T05:00:40.905Z,0
2018-12-10T05:01:49.838Z,0
2018-12-10T05:02:58.513Z,0
2018-12-10T05:04:07.186Z,0
2018-12-10T05:05:15.843Z,0
2018-12-10T05:06:24.511Z,0
2018-12-10T05:07:33.177Z,0
2018-12-10T05:08:41.857Z,0
2018-12-10T05:09:50.519Z,0
2018-12-10T05:10:59.199Z,0
2018-12-10T05:12:07.893Z,0
2018-12-10T05:13:16.580Z,0
2018-12-10T05:14:25.501Z,0
2018-12-10T05:15:34.172Z,0
2018-12-10T05:16:42.839Z,0
2018-12-10T05:17:51.508Z,0
2018-12-10T05:19:00.182Z,0
2018-12-10T05:20:09.109Z,0
2018-12-10T05:21:17.914Z,0
2018-12-10T05:22:26.583Z,0
2018-12-10T05:23:35.265Z,0
2018-12-10T05:24:43.928Z,0
2018-12-10T05:25:52.601Z,0
2018-12-10T05:27:03.635Z,0
2018-12-10T05:28:12.306Z,0
2018-12-10T05:29:20.974Z,0
2018-12-10T05:30:29.656Z,0
2018-12-10T05:31:38.314Z,0
2018-12-10T05:32:46.985Z,0
2018-12-10T05:33:55.654Z,0
2018-12-10T05:35:04.328Z,0
2018-12-10T05:36:12.991Z,0
2018-12-10T05:37:21.658Z,0
2018-12-10T05:38:30.322Z,0
2018-12-10T05:39:40.729Z,0
2018-12-10T05:40:49.691Z,0
2018-12-10T05:41:58.352Z,0
2018-12-10T05:43:07.020Z,0
2018-12-10T05:44:15.694Z,0
2018-12-10T05:45:24.619Z,0
2018-12-10T05:46:33.289Z,0
2018-12-10T05:47:42.216Z,0
2018-12-10T05:48:50.890Z,0
2018-12-10T05:49:59.566Z,0
2018-12-10T05:51:08.223Z,0
2018-12-10T05:52:16.890Z,0
2018-12-10T05:53:25.554Z,0
2018-12-10T05:54:34.230Z,0
2018-12-10T05:55:42.895Z,0
2018-12-10T05:56:51.568Z,0
2018-12-10T05:58:00.290Z,0
2018-12-10T05:59:08.957Z,0
2018-12-10T06:00:17.630Z,0
2018-12-10T06:01:26.299Z,0
2018-12-10T06:02:34.970Z,0
2018-12-10T06:03:43.629Z,0
2018-12-10T06:04:52.566Z,0
2018-12-10T06:06:01.505Z,0
2018-12-10T06:07:10.198Z,0
2018-12-10T06:08:19.168Z,0
2018-12-10T06:09:27.843Z,0
2018-12-10T06:10:36.511Z,0
2018-12-10T06:11:45.183Z,0
2018-12-10T06:12:53.838Z,0
2018-12-10T06:14:02.508Z,0
2018-12-10T06:15:11.558Z,0
2018-12-10T06:16:21.119Z,0
2018-12-10T06:17:29.791Z,0
2018-12-10T06:18:38.454Z,0
2018-12-10T06:19:47.125Z,0
2018-12-10T06:20:55.795Z,0
2018-12-10T06:22:04.471Z,0
2018-12-10T06:23:13.130Z,0
2018-12-10T06:24:21.817Z,0
2018-12-10T06:25:30.580Z,0
2018-12-10T06:26:39.258Z,0
2018-12-10T06:27:47.919Z,0
2018-12-10T06:28:56.606Z,0
2018-12-10T06:30:05.287Z,0
2018-12-10T06:31:13.974Z,0
2018-12-10T06:32:22.636Z,0
2018-12-10T06:33:31.301Z,0
2018-12-10T06:34:39.962Z,0
2018-12-10T06:35:48.632Z,0
2018-12-10T06:36:57.307Z,0
2018-12-10T06:38:05.967Z,0
2018-12-10T06:39:14.639Z,0
2018-12-10T06:40:23.368Z,0
2018-12-10T06:41:32.048Z,0
2018-12-10T06:42:40.713Z,0
2018-12-10T06:43:49.385Z,0
2018-12-10T06:44:58.043Z,0
2018-12-10T06:46:06.723Z,0
2018-12-10T06:47:15.388Z,0
2018-12-10T06:48:24.058Z,0
2018-12-10T06:49:32.722Z,0
2018-12-10T06:50:41.395Z,0
2018-12-10T06:51:50.078Z,0
2018-12-10T06:52:58.756Z,0
2018-12-10T06:54:07.433Z,0
2018-12-10T06:55:16.092Z,0
2018-12-10T06:56:24.766Z,0
2018-12-10T06:57:33.429Z,0
2018-12-10T06:58:42.105Z,0
2018-12-10T06:59:50.762Z,0
2018-12-10T07:01:00.061Z,0
2018-12-10T07:02:08.826Z,0
2018-12-10T07:03:17.513Z,0
2018-12-10T07:04:26.433Z,0
2018-12-10T07:05:35.105Z,0
2018-12-10T07:06:43.768Z,0
2018-12-10T07:07:52.437Z,0
2018-12-10T07:09:01.103Z,0
2018-12-10T07:10:09.774Z,0
2018-12-10T07:11:18.699Z,0
2018-12-10T07:12:27.616Z,0
2018-12-10T07:13:36.291Z,0
2018-12-10T07:14:44.952Z,0
2018-12-10T07:15:53.622Z,0
2018-12-10T07:17:03.181Z,0
2018-12-10T07:18:11.855Z,0
2018-12-10T07:19:20.521Z,0
2018-12-10T07:20:29.439Z,0
2018-12-10T07:21:38.350Z,0
2018-12-10T07:22:47.027Z,5
2018-12-10T07:23:55.690Z,5
2018-12-10T07:25:04.367Z,5
2018-12-10T07:26:13.025Z,5
2018-12-10T07:27:21.944Z,5
2018-12-10T07:28:30.616Z,5
2018-12-10T07:29:39.288Z,5
2018-12-10T07:30:50.162Z,10
2018-12-10T07:31:58.837Z,10
2018-12-10T07:33:07.508Z,10
2018-12-10T07:34:16.262Z,10
2018-12-10T07:35:25.197Z,10
2018-12-10T07:36:33.864Z,10
2018-12-10T07:37:42.530Z,15
2018-12-10T07:38:51.205Z,15
2018-12-10T07:40:00.123Z,15
2018-12-10T07:41:08.791Z,15
2018-12-10T07:42:17.578Z,15
2018-12-10T07:43:26.244Z,20
2018-12-10T07:44:35.179Z,20
2018-12-10T07:45:43.854Z,20
2018-12-10T07:46:52.520Z,20
2018-12-10T07:48:01.189Z,20
2018-12-10T07:49:09.847Z,25
2018-12-10T07:50:18.523Z,25
2018-12-10T07:51:27.193Z,25
2018-12-10T07:52:36.119Z,30
2018-12-10T07:53:44.789Z,30
2018-12-10T07:54:53.471Z,30
2018-12-10T07:56:02.146Z,30
2018-12-10T07:57:10.813Z,30
2018-12-10T07:58:19.479Z,30
2018-12-10T07:59:28.150Z,30
2018-12-10T08:00:37.158Z,35
2018-12-10T08:01:45.824Z,35
2018-12-10T08:02:54.498Z,40
2018-12-10T08:04:03.169Z,40
2018-12-10T08:05:18.841Z,40
2018-12-10T08:06:27.507Z,40
2018-12-10T08:07:36.170Z,40
2018-12-10T08:08:44.842Z,45
2018-12-10T08:09:53.510Z,40
2018-12-10T08:11:02.183Z,45
2018-12-10T08:12:10.846Z,45
2018-12-10T08:13:19.522Z,45
2018-12-10T08:14:28.195Z,45
2018-12-10T08:15:36.869Z,40
2018-12-10T08:16:45.536Z,35
2018-12-10T08:17:54.208Z,40
2018-12-10T08:19:03.152Z,40
2018-12-10T08:20:11.842Z,40
2018-12-10T08:21:20.505Z,45
2018-12-10T08:22:29.427Z,45
2018-12-10T08:23:38.440Z,55
2018-12-10T08:24:47.119Z,50
2018-12-10T08:25:55.789Z,55
2018-12-10T08:27:09.372Z,65
2018-12-10T08:28:18.308Z,65
2018-12-10T08:29:27.232Z,60
2018-12-10T08:30:35.917Z,50
2018-12-10T08:31:44.589Z,55
2018-12-10T08:32:53.264Z,60
2018-12-10T08:34:02.188Z,60
2018-12-10T08:35:10.875Z,55
2018-12-10T08:36:19.538Z,55
2018-12-10T08:37:28.217Z,50
2018-12-10T08:38:37.527Z,55
2018-12-10T08:39:46.208Z,55
2018-12-10T08:40:55.052Z,55
2018-12-10T08:42:03.997Z,60
2018-12-10T08:43:12.660Z,65
2018-12-10T08:44:21.338Z,70
2018-12-10T08:45:30.008Z,80
2018-12-10T08:46:38.678Z,80
2018-12-10T08:47:47.347Z,80
2018-12-10T08:48:56.018Z,80
2018-12-10T08:50:04.684Z,85
2018-12-10T08:51:14.209Z,90
2018-12-10T08:52:22.885Z,95
2018-12-10T08:53:31.811Z,95
2018-12-10T08:54:40.480Z,80
2018-12-10T08:55:49.398Z,70
2018-12-10T08:56:58.081Z,70
2018-12-10T08:58:06.761Z,65
2018-12-10T08:59:15.431Z,75
2018-12-10T09:00:24.366Z,70
2018-12-10T09:01:33.049Z,70
2018-12-10T09:02:41.721Z,75
2018-12-10T09:03:50.393Z,75
2018-12-10T09:04:59.067Z,75
2018-12-10T09:06:07.730Z,75
2018-12-10T09:07:16.664Z,65
2018-12-10T09:08:25.334Z,65
2018-12-10T09:09:34.035Z,70
2018-12-10T09:10:43.426Z,80
2018-12-10T09:11:52.105Z,100
2018-12-10T09:13:00.772Z,85
2018-12-10T09:14:09.442Z,95
2018-12-10T09:15:18.108Z,90
2018-12-10T09:16:26.782Z,115
2018-12-10T09:17:35.451Z,120
2018-12-10T09:18:44.367Z,105
2018-12-10T09:19:53.036Z,120
2018-12-10T09:21:01.702Z,115
2018-12-10T09:22:10.389Z,115
2018-12-10T09:23:19.065Z,110
2018-12-10T09:24:28.000Z,100
2018-12-10T09:25:37.224Z,85
2018-12-10T09:26:45.903Z,85
2018-12-10T09:27:54.569Z,85
2018-12-10T09:29:03.238Z,85
2018-12-10T09:30:11.905Z,95
2018-12-10T09:31:20.588Z,95
2018-12-10T09:32:29.255Z,85
2018-12-10T09:33:37.930Z,100
2018-12-10T09:34:46.595Z,85
2018-12-10T09:35:55.268Z,105
2018-12-10T09:37:03.944Z,110
2018-12-10T09:38:12.614Z,105
2018-12-10T09:39:21.285Z,105
2018-12-10T09:40:29.947Z,105
2018-12-10T09:41:38.627Z,105
2018-12-10T09:42:47.294Z,105
2018-12-10T09:43:55.970Z,105
2018-12-10T09:45:04.893Z,95
2018-12-10T09:46:13.568Z,105
2018-12-10T09:47:22.238Z,105
2018-12-10T09:48:30.919Z,100
2018-12-10T09:49:39.578Z,115
2018-12-10T09:50:48.250Z,110
2018-12-10T09:51:56.919Z,90
2018-12-10T09:53:05.859Z,90
2018-12-10T09:54:14.533Z,90
2018-12-10T09:55:23.198Z,90
2018-12-10T09:56:31.872Z,110
2018-12-10T09:57:40.796Z,115
2018-12-10T09:58:49.482Z,120
2018-12-10T09:59:58.154Z,115
2018-12-10T10:01:06.820Z,135
2018-12-10T10:02:20.983Z,150
2018-12-10T10:03:29.646Z,155
2018-12-10T10:04:38.309Z,140
2018-12-10T10:05:47.044Z,140
2018-12-10T10:06:55.739Z,145
2018-12-10T10:08:04.419Z,130
2018-12-10T10:09:13.094Z,125
2018-12-10T10:10:21.761Z,120
2018-12-10T10:11:30.441Z,120
2018-12-10T10:12:39.113Z,115
2018-12-10T10:13:47.792Z,115
2018-12-10T10:14:58.106Z,105
2018-12-10T10:16:06.771Z,110
2018-12-10T10:17:15.455Z,105
2018-12-10T10:18:24.132Z,100
2018-12-10T10:19:32.905Z,95
2018-12-10T10:20:41.569Z,100
2018-12-10T10:21:50.266Z,95
2018-12-10T10:22:58.996Z,85
2018-12-10T10:24:08.386Z,75
2018-12-10T10:25:18.063Z,70
2018-12-10T10:26:26.860Z,75
2018-12-10T10:27:35.946Z,100
2018-12-10T10:28:44.632Z,115
2018-12-10T10:29:53.882Z,115
2018-12-10T10:31:02.658Z,105
2018-12-10T10:32:11.436Z,110
2018-12-10T10:33:20.236Z,115
2018-12-10T10:34:29.192Z,115
2018-12-10T10:35:37.861Z,125
2018-12-10T10:36:47.093Z,150
2018-12-10T10:37:55.790Z,130
2018-12-10T10:39:04.538Z,110
2018-12-10T10:40:13.380Z,95
2018-12-10T10:41:22.057Z,85
2018-12-10T10:42:30.730Z,90
2018-12-10T10:43:39.402Z,90
2018-12-10T10:44:48.120Z,90
2018-12-10T10:45:57.051Z,80
2018-12-10T10:47:05.720Z,80
2018-12-10T10:48:14.668Z,80
2018-12-10T10:49:23.355Z,75
2018-12-10T10:50:32.018Z,80
2018-12-10T10:51:40.683Z,80
2018-12-10T10:52:49.351Z,80
2018-12-10T10:53:58.047Z,80
2018-12-10T10:55:06.714Z,80
2018-12-10T10:56:15.384Z,80
2018-12-10T10:57:24.050Z,85
2018-12-10T10:58:32.733Z,90
2018-12-10T10:59:41.420Z,100
2018-12-10T11:00:50.139Z,105
2018-12-10T11:01:59.056Z,125
2018-12-10T11:03:07.790Z,115
2018-12-10T11:04:17.130Z,95
2018-12-10T11:05:25.800Z,90
2018-12-10T11:06:34.714Z,100
2018-12-10T11:07:43.385Z,110
2018-12-10T11:08:52.339Z,100
2018-12-10T11:10:01.019Z,135
2018-12-10T11:11:09.962Z,135
2018-12-10T11:12:18.626Z,135
2018-12-10T11:13:27.297Z,130
2018-12-10T11:14:35.978Z,115
2018-12-10T11:15:44.656Z,100
2018-12-10T11:16:53.467Z,105
2018-12-10T11:18:02.139Z,105
2018-12-10T11:19:10.805Z,100
2018-12-10T11:20:19.480Z,105
2018-12-10T11:21:28.140Z,110
2018-12-10T11:22:36.812Z,120
2018-12-10T11:23:45.486Z,135
2018-12-10T11:24:54.171Z,135
2018-12-10T11:26:02.836Z,145
2018-12-10T11:27:11.502Z,150
2018-12-10T11:28:20.428Z,145
2018-12-10T11:29:29.350Z,160
2018-12-10T11:30:38.026Z,160
2018-12-10T11:31:46.691Z,135
2018-12-10T11:32:55.366Z,110
2018-12-10T11:34:04.036Z,70
2018-12-10T11:35:12.717Z,75
2018-12-10T11:36:21.387Z,85
2018-12-10T11:37:30.059Z,85
2018-12-10T11:38:38.725Z,85
2018-12-10T11:39:47.411Z,85
2018-12-10T11:40:56.085Z,70
2018-12-10T11:42:04.764Z,40
2018-12-10T11:43:13.424Z,20
2018-12-10T11:44:22.353Z,40
2018-12-10T11:45:31.287Z,80
2018-12-10T11:46:40.083Z,95
2018-12-10T11:47:50.238Z,100
2018-12-10T11:48:58.897Z,95
2018-12-10T11:50:07.673Z,100
2018-12-10T11:51:16.364Z,100
2018-12-10T11:52:25.048Z,90
2018-12-10T11:53:33.707Z,85
2018-12-10T11:54:42.377Z,85
2018-12-10T11:55:51.039Z,95
2018-12-10T11:56:59.964Z,100
2018-12-10T11:58:08.640Z,105
2018-12-10T11:59:17.331Z,95
2018-12-10T12:00:26.032Z,90
2018-12-10T12:01:35.026Z,90
2018-12-10T12:02:44.261Z,95
2018-12-10T12:03:52.943Z,105
2018-12-10T12:05:01.676Z,105
2018-12-10T12:06:10.788Z,115
2018-12-10T12:07:19.469Z,110
2018-12-10T12:08:28.552Z,135
2018-12-10T12:09:37.528Z,140
2018-12-10T12:10:46.478Z,130
2018-12-10T12:11:55.141Z,130
2018-12-10T12:13:03.811Z,100
2018-12-10T12:14:12.581Z,100
2018-12-10T12:15:21.266Z,105
2018-12-10T12:16:29.930Z,130
2018-12-10T12:17:38.606Z,130
2018-12-10T12:18:47.276Z,130
2018-12-10T12:19:56.206Z,120
2018-12-10T12:21:04.871Z,115
2018-12-10T12:22:13.874Z,95
2018-12-10T12:23:22.542Z,115
2018-12-10T12:24:31.270Z,110
2018-12-10T12:25:39.949Z,120
2018-12-10T12:26:50.143Z,105
2018-12-10T12:27:58.883Z,105
2018-12-10T12:29:07.543Z,120
2018-12-10T12:30:16.226Z,130
2018-12-10T12:31:24.903Z,125
2018-12-10T12:32:33.575Z,120
2018-12-10T12:33:42.240Z,100
2018-12-10T12:34:50.922Z,125
2018-12-10T12:36:00.946Z,95
2018-12-10T12:37:09.698Z,100
2018-12-10T12:38:18.359Z,130
2018-12-10T12:39:27.547Z,125
2018-12-10T12:40:36.236Z,110
2018-12-10T12:41:44.905Z,115
2018-12-10T12:42:53.591Z,120
2018-12-10T12:44:02.251Z,115
2018-12-10T12:45:11.022Z,110
2018-12-10T12:46:19.693Z,110
2018-12-10T12:47:28.372Z,115
2018-12-10T12:48:37.040Z,120
2018-12-10T12:49:45.887Z,130
2018-12-10T12:50:54.574Z,135
2018-12-10T12:52:03.292Z,120
2018-12-10T12:53:12.023Z,150
2018-12-10T12:54:20.951Z,145
2018-12-10T12:55:29.777Z,135
2018-12-10T12:56:38.639Z,140
2018-12-10T12:57:47.319Z,120
2018-12-10T12:58:55.988Z,105
2018-12-10T13:00:04.662Z,105
2018-12-10T13:01:13.432Z,110
2018-12-10T13:02:22.113Z,120
2018-12-10T13:03:30.780Z,155
2018-12-10T13:04:39.460Z,145
2018-12-10T13:05:48.136Z,135
2018-12-10T13:06:57.021Z,125
2018-12-10T13:08:06.253Z,145
2018-12-10T13:09:21.671Z,120
2018-12-10T13:10:31.213Z,135
2018-12-10T13:11:41.700Z,135
2018-12-10T13:12:50.542Z,135
2018-12-10T13:13:59.709Z,120
2018-12-10T13:15:08.371Z,100
2018-12-10T13:16:17.080Z,100
2018-12-10T13:17:25.745Z,105
2018-12-10T13:18:34.413Z,110
2018-12-10T13:19:43.083Z,105
2018-12-10T13:20:52.015Z,90
2018-12-10T13:22:00.681Z,90
2018-12-10T13:23:09.603Z,80
2018-12-10T13:24:18.275Z,60
2018-12-10T13:25:26.939Z,40
2018-12-10T13:26:35.610Z,30
2018-12-10T13:27:44.291Z,25
2018-12-10T13:28:52.994Z,25
2018-12-10T13:30:01.924Z,25
2018-12-10T13:31:10.946Z,25
2018-12-10T13:32:19.617Z,30
2018-12-10T13:33:28.292Z,30
2018-12-10T13:34:37.136Z,30
2018-12-10T13:35:45.822Z,30
2018-12-10T13:36:54.492Z,30
2018-12-10T13:38:12.270Z,30
2018-12-10T13:39:21.569Z,45
2018-12-10T13:40:30.256Z,55
2018-12-10T13:41:38.922Z,55
2018-12-10T13:42:47.594Z,55
2018-12-10T13:43:56.506Z,60
2018-12-10T13:45:05.194Z,65
2018-12-10T13:46:13.884Z,65
2018-12-10T13:47:22.575Z,70
2018-12-10T13:48:31.247Z,65
2018-12-10T13:49:41.019Z,70
2018-12-10T13:50:49.692Z,70
2018-12-10T13:51:58.357Z,65
2018-12-10T13:53:07.026Z,60
2018-12-10T13:54:15.700Z,50
2018-12-10T13:55:28.830Z,45
2018-12-10T13:56:38.990Z,35
2018-12-10T13:57:47.652Z,30
2018-12-10T13:58:56.326Z,20
2018-12-10T14:00:04.988Z,20
2018-12-10T14:01:13.669Z,30
2018-12-10T14:02:22.329Z,20
2018-12-10T14:03:31.265Z,25
2018-12-10T14:04:39.929Z,15
2018-12-10T14:05:54.075Z,10
2018-12-10T14:07:02.736Z,10
2018-12-10T14:08:11.423Z,20
2018-12-10T14:09:20.093Z,35
2018-12-10T14:10:28.767Z,45
2018-12-10T14:11:37.442Z,45
2018-12-10T14:12:46.129Z,45
2018-12-10T14:13:54.792Z,45
2018-12-10T14:15:03.465Z,45
2018-12-10T14:16:12.152Z,45
2018-12-10T14:17:21.066Z,50
2018-12-10T14:18:29.738Z,50
2018-12-10T14:19:38.403Z,50
2018-12-10T14:20:47.090Z,50
2018-12-10T14:21:56.754Z,50
2018-12-10T14:23:05.428Z,45
2018-12-10T14:24:14.102Z,45
2018-12-10T14:25:22.789Z,45
2018-12-10T14:26:31.718Z,45
2018-12-10T14:27:40.737Z,45
2018-12-10T14:28:49.394Z,45
2018-12-10T14:29:58.061Z,40
2018-12-10T14:31:06.733Z,45
2018-12-10T14:32:15.401Z,45
2018-12-10T14:33:24.085Z,45
2018-12-10T14:34:32.751Z,45
2018-12-10T14:35:41.438Z,40
2018-12-10T14:36:50.114Z,40
2018-12-10T14:37:59.044Z,35
2018-12-10T14:39:07.712Z,35
2018-12-10T14:40:16.389Z,35
2018-12-10T14:41:25.055Z,30
2018-12-10T14:42:33.726Z,30
2018-12-10T14:43:42.382Z,30
2018-12-10T14:44:51.056Z,30
2018-12-10T14:45:59.978Z,30
2018-12-10T14:47:08.653Z,30
2018-12-10T14:48:17.331Z,25
2018-12-10T14:49:26.001Z,25
2018-12-10T14:50:34.671Z,25
2018-12-10T14:51:44.327Z,25
2018-12-10T14:52:53.126Z,25
2018-12-10T14:54:01.887Z,25
2018-12-10T14:55:10.802Z,20
2018-12-10T14:56:19.575Z,20
2018-12-10T14:57:28.253Z,20
2018-12-10T14:58:37.035Z,20
2018-12-10T14:59:45.702Z,20
2018-12-10T15:00:54.634Z,15
2018-12-10T15:02:03.302Z,15
2018-12-10T15:03:11.978Z,15
2018-12-10T15:04:20.653Z,15
2018-12-10T15:05:29.319Z,15
2018-12-10T15:06:38.260Z,10
2018-12-10T15:07:47.073Z,10
2018-12-10T15:08:55.769Z,10
2018-12-10T15:10:04.440Z,10
2018-12-10T15:11:13.104Z,10
2018-12-10T15:12:21.768Z,10
2018-12-10T15:13:31.536Z,10
2018-12-10T15:14:40.759Z,5
2018-12-10T15:15:49.458Z,5
2018-12-10T15:16:58.123Z,5
2018-12-10T15:18:07.044Z,5
2018-12-10T15:19:15.720Z,5
2018-12-10T15:20:24.428Z,5
2018-12-10T15:21:33.094Z,5
2018-12-10T15:22:41.760Z,5
2018-12-10T15:23:50.435Z,0
2018-12-10T15:24:59.361Z,0
2018-12-10T15:26:08.031Z,0
2018-12-10T15:27:16.959Z,0
2018-12-10T15:28:25.655Z,0
2018-12-10T15:29:34.330Z,0
2018-12-10T15:30:43.255Z,0
2018-12-10T15:31:52.182Z,0
2018-12-10T15:33:00.852Z,0
2018-12-10T15:34:09.525Z,0
2018-12-10T15:35:18.199Z,0
2018-12-10T15:36:26.865Z,0
2018-12-10T15:37:35.545Z,0
2018-12-10T15:38:44.469Z,0
2018-12-10T15:39:53.144Z,0
2018-12-10T15:41:01.817Z,0
2018-12-10T15:42:10.487Z,0
2018-12-10T15:43:19.162Z,0
2018-12-10T15:44:27.828Z,0
2018-12-10T15:45:36.502Z,0
2018-12-10T15:46:45.172Z,0
2018-12-10T15:47:53.839Z,0
2018-12-10T15:49:02.509Z,0
2018-12-10T15:50:11.186Z,0
2018-12-10T15:51:19.860Z,0
2018-12-10T15:52:28.532Z,0
2018-12-10T15:53:37.201Z,0
2018-12-10T15:54:45.870Z,0
2018-12-10T15:55:54.530Z,0
2018-12-10T15:57:03.202Z,0
2018-12-10T15:58:12.377Z,0
2018-12-10T15:59:21.045Z,0
2018-12-10T16:00:29.961Z,0
2018-12-10T16:01:38.884Z,0
2018-12-10T16:02:47.555Z,0
2018-12-10T16:03:56.223Z,0
2018-12-10T16:05:04.888Z,0
2018-12-10T16:06:13.805Z,0
2018-12-10T16:07:22.478Z,0
2018-12-10T16:08:31.149Z,0
2018-12-10T16:09:39.819Z,0
2018-12-10T16:10:48.494Z,0
2018-12-10T16:11:57.162Z,0
2018-12-10T16:13:05.828Z,0
2018-12-10T16:14:14.502Z,0
2018-12-10T16:15:23.168Z,0
2018-12-10T16:16:31.835Z,0
2018-12-10T16:17:40.765Z,0
2018-12-10T16:18:49.696Z,0
2018-12-10T16:19:58.363Z,0
2018-12-10T16:21:07.031Z,0
2018-12-10T16:22:15.716Z,0
2018-12-10T16:23:24.380Z,0
2018-12-10T16:24:33.056Z,0
2018-12-10T16:25:41.728Z,0
2018-12-10T16:26:50.648Z,0
2018-12-10T16:27:59.309Z,0
2018-12-10T16:29:08.238Z,0
2018-12-10T16:30:16.916Z,0
2018-12-10T16:31:25.581Z,0
2018-12-10T16:32:34.251Z,0
2018-12-10T16:33:42.934Z,0